createdAt,value
2019-02-23T00:01:13.441Z,100297.20
2019-02-23T00:03:44.389Z,100293.75
2019-02-23T00:06:15.450Z,100298.28
2019-02-23T00:08:46.354Z,100290.41
2019-02-23T00:11:17.405Z,100294.68
2019-02-23T00:13:48.379Z,100306.95
2019-02-23T00:16:19.375Z,100305.53
2019-02-23T00:18:50.354Z,100306.55
2019-02-23T00:21:21.317Z,100309.33
2019-02-23T00:23:52.200Z,100308.17
2019-02-23T00:26:23.157Z,100313.81
2019-02-23T00:28:54.055Z,100310.85
2019-02-23T00:31:24.947Z,100318.17
2019-02-23T00:33:55.858Z,100326.28
2019-02-23T00:36:26.879Z,100327.45
2019-02-23T00:38:57.818Z,100322.02
2019-02-23T00:41:28.696Z,100326.20
2019-02-23T00:43:59.590Z,100324.50
2019-02-23T00:46:30.628Z,100318.50
2019-02-23T00:49:01.709Z,100320.60
2019-02-23T00:51:32.676Z,100329.88
2019-02-23T00:54:03.730Z,100333.30
2019-02-23T00:56:34.727Z,100332.42
2019-02-23T00:59:05.591Z,100338.42
2019-02-23T01:01:36.521Z,100339.00
2019-02-23T01:04:07.688Z,100341.20
2019-02-23T01:06:38.801Z,100346.77
2019-02-23T01:09:09.807Z,100350.42
2019-02-23T01:11:40.721Z,100356.22
2019-02-23T01:14:11.636Z,100351.76
2019-02-23T01:16:42.542Z,100346.25
2019-02-23T01:19:13.634Z,100344.91
2019-02-23T01:21:44.601Z,100344.56
2019-02-23T01:24:15.655Z,100349.08
2019-02-23T01:26:46.667Z,100343.42
2019-02-23T01:29:17.629Z,100333.70
2019-02-23T01:31:48.643Z,100339.58
2019-02-23T01:34:19.524Z,100341.94
2019-02-23T01:36:50.581Z,100344.70
2019-02-23T01:39:21.652Z,100334.12
2019-02-23T01:41:52.656Z,100339.25
2019-02-23T01:44:23.625Z,100339.47
2019-02-23T01:46:54.612Z,100333.13
2019-02-23T01:49:25.593Z,100338.78
2019-02-23T01:51:56.538Z,100335.19
2019-02-23T01:54:27.888Z,100334.53
2019-02-23T01:56:58.867Z,100332.16
2019-02-23T01:59:29.983Z,100331.36
2019-02-23T02:02:00.936Z,100335.20
2019-02-23T02:04:31.924Z,100345.02
2019-02-23T02:07:02.950Z,100344.54
2019-02-23T02:09:34.033Z,100347.19
2019-02-23T02:12:06.713Z,100347.06
2019-02-23T02:14:37.939Z,100334.73
2019-02-23T02:17:08.988Z,100338.63
2019-02-23T02:19:39.974Z,100329.88
2019-02-23T02:22:10.993Z,100336.63
2019-02-23T02:24:41.936Z,100344.09
2019-02-23T02:27:12.995Z,100336.69
2019-02-23T02:29:43.955Z,100335.53
2019-02-23T02:32:14.905Z,100330.66
2019-02-23T02:34:45.955Z,100340.37
2019-02-23T02:37:16.850Z,100339.49
2019-02-23T02:39:47.830Z,100338.73
2019-02-23T02:42:18.885Z,100346.24
2019-02-23T02:44:49.799Z,100344.70
2019-02-23T02:47:20.812Z,100347.42
2019-02-23T02:49:51.814Z,100350.56
2019-02-23T02:52:22.848Z,100356.11
2019-02-23T02:54:53.817Z,100369.87
2019-02-23T02:57:24.885Z,100376.17
2019-02-23T02:59:55.809Z,100386.64
2019-02-23T03:02:26.849Z,100395.59
2019-02-23T03:04:57.795Z,100395.05
2019-02-23T03:07:28.764Z,100390.52
2019-02-23T03:09:59.733Z,100391.36
2019-02-23T03:12:31.442Z,100376.06
2019-02-23T03:15:02.392Z,100369.77
2019-02-23T03:17:33.395Z,100360.72
2019-02-23T03:20:05.896Z,100361.56
2019-02-23T03:22:36.906Z,100357.41
2019-02-23T03:25:08.322Z,100355.72
2019-02-23T03:27:39.316Z,100357.19
2019-02-23T03:30:11.605Z,100353.45
2019-02-23T03:32:42.742Z,100360.85
2019-02-23T03:35:13.772Z,100346.31
2019-02-23T03:37:44.656Z,100345.93
2019-02-23T03:40:15.700Z,100350.86
2019-02-23T03:42:46.706Z,100343.88
2019-02-23T03:45:17.803Z,100341.83
2019-02-23T03:47:48.869Z,100354.38
2019-02-23T03:50:19.863Z,100366.23
2019-02-23T03:52:50.835Z,100373.48
2019-02-23T03:55:21.758Z,100368.63
2019-02-23T03:57:52.650Z,100374.94
2019-02-23T04:00:23.664Z,100366.82
2019-02-23T04:02:54.604Z,100357.67
2019-02-23T04:05:25.519Z,100356.66
2019-02-23T04:07:56.463Z,100349.16
2019-02-23T04:10:27.455Z,100354.66
2019-02-23T04:12:58.450Z,100347.80
2019-02-23T04:15:29.329Z,100339.66
2019-02-23T04:18:00.270Z,100333.75
2019-02-23T04:20:31.289Z,100336.72
2019-02-23T04:23:02.301Z,100340.48
2019-02-23T04:25:33.335Z,100335.30
2019-02-23T04:28:04.325Z,100344.77
2019-02-23T04:30:35.298Z,100348.65
2019-02-23T04:33:06.236Z,100341.25
2019-02-23T04:35:37.199Z,100344.98
2019-02-23T04:38:08.084Z,100342.83
2019-02-23T04:40:38.998Z,100349.09
2019-02-23T04:43:09.957Z,100349.19
2019-02-23T04:45:41.032Z,100352.81
2019-02-23T04:48:12.091Z,100353.22
2019-02-23T04:50:42.988Z,100357.84
2019-02-23T04:53:13.986Z,100356.62
2019-02-23T04:55:44.943Z,100348.31
2019-02-23T04:58:15.875Z,100349.52
2019-02-23T05:00:46.793Z,100349.09
2019-02-23T05:03:17.900Z,100345.63
2019-02-23T05:05:48.798Z,100351.05
2019-02-23T05:08:19.798Z,100349.37
2019-02-23T05:10:52.495Z,100351.97
2019-02-23T05:13:23.379Z,100349.14
2019-02-23T05:15:54.338Z,100350.02
2019-02-23T05:18:25.240Z,100347.75
2019-02-23T05:20:56.337Z,100350.02
2019-02-23T05:23:27.280Z,100350.44
2019-02-23T05:25:58.197Z,100350.96
2019-02-23T05:28:29.073Z,100348.02
2019-02-23T05:31:00.253Z,100350.05
2019-02-23T05:33:31.219Z,100344.83
2019-02-23T05:36:02.243Z,100347.50
2019-02-23T05:38:33.133Z,100348.15
2019-02-23T05:41:04.119Z,100342.29
2019-02-23T05:43:34.999Z,100341.34
2019-02-23T05:46:06.053Z,100343.52
2019-02-23T05:48:36.959Z,100342.69
2019-02-23T05:51:07.978Z,100338.58
2019-02-23T05:53:38.953Z,100334.63
2019-02-23T05:56:13.909Z,100348.17
2019-02-23T05:58:42.711Z,100349.05
2019-02-23T06:01:13.694Z,100347.50
2019-02-23T06:03:44.665Z,100352.52
2019-02-23T06:06:15.589Z,100348.01
2019-02-23T06:08:46.547Z,100339.00
2019-02-23T06:11:17.529Z,100346.41
2019-02-23T06:13:48.476Z,100339.96
2019-02-23T06:16:19.460Z,100347.90
2019-02-23T06:18:50.570Z,100352.55
2019-02-23T06:21:21.680Z,100347.50
2019-02-23T06:23:52.583Z,100348.90
2019-02-23T06:26:23.547Z,100345.66
2019-02-23T06:28:54.532Z,100351.84
2019-02-23T06:31:25.569Z,100341.81
2019-02-23T06:33:56.629Z,100342.08
2019-02-23T06:36:27.610Z,100341.73
2019-02-23T06:38:58.588Z,100348.27
2019-02-23T06:41:29.676Z,100361.05
2019-02-23T06:44:00.641Z,100367.86
2019-02-23T06:46:31.626Z,100368.80
2019-02-23T06:49:02.606Z,100372.34
2019-02-23T06:51:33.602Z,100372.27
2019-02-23T06:54:04.657Z,100361.98
2019-02-23T06:56:35.555Z,100372.09
2019-02-23T06:59:06.530Z,100369.11
2019-02-23T07:01:37.498Z,100368.97
2019-02-23T07:04:08.382Z,100376.56
2019-02-23T07:06:40.457Z,100373.94
2019-02-23T07:09:11.638Z,100379.63
2019-02-23T07:11:42.704Z,100383.53
2019-02-23T07:14:13.675Z,100369.66
2019-02-23T07:16:44.578Z,100379.45
2019-02-23T07:19:15.579Z,100387.78
2019-02-23T07:21:46.618Z,100389.58
2019-02-23T07:24:17.672Z,100388.17
2019-02-23T07:26:48.822Z,100385.28
2019-02-23T07:29:19.963Z,100375.55
2019-02-23T07:31:50.983Z,100370.16
2019-02-23T07:34:22.000Z,100372.14
2019-02-23T07:36:53.245Z,100372.72
2019-02-23T07:39:24.118Z,100376.55
2019-02-23T07:41:55.074Z,100381.31
2019-02-23T07:44:26.090Z,100381.86
2019-02-23T07:46:57.334Z,100371.72
2019-02-23T07:49:28.289Z,100359.27
2019-02-23T07:51:59.270Z,100376.92
2019-02-23T07:54:30.198Z,100378.76
2019-02-23T07:57:01.156Z,100380.37
2019-02-23T07:59:32.272Z,100376.30
2019-02-23T08:02:03.378Z,100366.30
2019-02-23T08:04:34.352Z,100376.70
2019-02-23T08:07:06.389Z,100368.08
2019-02-23T08:09:37.284Z,100368.87
2019-02-23T08:12:08.367Z,100370.84
2019-02-23T08:14:39.408Z,100368.17
2019-02-23T08:17:10.430Z,100375.08
2019-02-23T08:19:41.382Z,100381.91
2019-02-23T08:22:12.417Z,100384.56
2019-02-23T08:24:43.404Z,100382.59
2019-02-23T08:27:14.375Z,100398.12
2019-02-23T08:29:45.350Z,100397.13
2019-02-23T08:32:16.373Z,100388.31
2019-02-23T08:34:47.363Z,100387.74
2019-02-23T08:37:18.355Z,100392.08
2019-02-23T08:39:49.561Z,100397.83
2019-02-23T08:42:20.468Z,100395.33
2019-02-23T08:44:51.452Z,100396.03
2019-02-23T08:47:22.466Z,100400.66
2019-02-23T08:49:53.571Z,100401.84
2019-02-23T08:52:24.580Z,100408.62
2019-02-23T08:54:55.564Z,100402.36
2019-02-23T08:57:26.484Z,100407.38
2019-02-23T08:59:57.406Z,100409.08
2019-02-23T09:02:28.338Z,100408.94
2019-02-23T09:04:59.289Z,100400.22
2019-02-23T09:07:30.169Z,100397.47
2019-02-23T09:10:01.100Z,100397.31
2019-02-23T09:12:32.131Z,100387.89
2019-02-23T09:15:03.045Z,100383.63
2019-02-23T09:17:34.019Z,100391.05
2019-02-23T09:20:06.552Z,100397.23
2019-02-23T09:22:37.584Z,100400.02
2019-02-23T09:25:09.995Z,100399.07
2019-02-23T09:27:41.047Z,100413.34
2019-02-23T09:30:15.621Z,100404.46
2019-02-23T09:32:46.509Z,100394.21
2019-02-23T09:35:17.608Z,100389.41
2019-02-23T09:37:48.939Z,100395.06
2019-02-23T09:40:20.657Z,100394.63
2019-02-23T09:42:51.720Z,100384.56
2019-02-23T09:45:22.833Z,100392.27
2019-02-23T09:48:06.771Z,100407.03
2019-02-23T09:50:37.798Z,100404.48
2019-02-23T09:53:11.433Z,100408.50
2019-02-23T09:55:41.692Z,100418.41
2019-02-23T09:58:12.781Z,100425.56
2019-02-23T10:00:43.769Z,100437.30
2019-02-23T10:03:14.724Z,100445.35
2019-02-23T10:05:45.596Z,100450.92
2019-02-23T10:08:17.007Z,100445.72
2019-02-23T10:10:48.010Z,100439.54
2019-02-23T10:13:18.977Z,100426.86
2019-02-23T10:15:49.983Z,100429.48
2019-02-23T10:18:20.956Z,100432.72
2019-02-23T10:20:53.487Z,100426.66
2019-02-23T10:23:24.531Z,100409.54
2019-02-23T10:25:55.409Z,100408.77
2019-02-23T10:28:26.370Z,100405.78
2019-02-23T10:30:57.407Z,100401.91
2019-02-23T10:33:28.439Z,100391.89
2019-02-23T10:35:59.429Z,100384.15
2019-02-23T10:38:30.383Z,100377.31
2019-02-23T10:41:01.288Z,100369.94
2019-02-23T10:43:32.241Z,100363.30
2019-02-23T10:46:03.240Z,100361.02
2019-02-23T10:48:34.531Z,100360.95
2019-02-23T10:51:05.632Z,100357.89
2019-02-23T10:53:36.526Z,100355.13
2019-02-23T10:56:07.582Z,100357.75
2019-02-23T10:58:38.490Z,100368.80
2019-02-23T11:01:09.525Z,100368.94
2019-02-23T11:03:40.565Z,100364.77
2019-02-23T11:06:11.778Z,100356.62
2019-02-23T11:08:42.846Z,100353.05
2019-02-23T11:11:13.877Z,100356.35
2019-02-23T11:13:44.922Z,100345.66
2019-02-23T11:16:15.972Z,100345.75
2019-02-23T11:18:47.027Z,100339.13
2019-02-23T11:21:18.236Z,100335.95
2019-02-23T11:23:49.398Z,100342.73
2019-02-23T11:26:20.349Z,100335.98
2019-02-23T11:28:51.443Z,100331.16
2019-02-23T11:31:22.414Z,100338.27
2019-02-23T11:33:53.306Z,100333.55
2019-02-23T11:36:24.210Z,100333.53
2019-02-23T11:38:55.081Z,100333.34
2019-02-23T11:41:25.989Z,100321.02
2019-02-23T11:43:56.866Z,100319.88
2019-02-23T11:46:27.896Z,100320.09
2019-02-23T11:48:58.789Z,100320.25
2019-02-23T11:51:29.762Z,100314.53
2019-02-23T11:54:00.770Z,100298.25
2019-02-23T11:56:31.682Z,100308.09
2019-02-23T11:59:02.614Z,100300.72
2019-02-23T12:01:33.484Z,100298.92
2019-02-23T12:04:04.468Z,100295.80
2019-02-23T12:06:35.438Z,100291.41
2019-02-23T12:09:09.595Z,100282.65
2019-02-23T12:11:40.712Z,100287.92
2019-02-23T12:14:11.613Z,100281.58
2019-02-23T12:16:42.614Z,100282.70
2019-02-23T12:19:13.562Z,100281.45
2019-02-23T12:21:44.638Z,100268.53
2019-02-23T12:24:15.490Z,100276.20
2019-02-23T12:26:46.476Z,100266.78
2019-02-23T12:29:17.393Z,100258.99
2019-02-23T12:31:48.318Z,100253.75
2019-02-23T12:34:19.239Z,100258.30
2019-02-23T12:36:50.259Z,100258.05
2019-02-23T12:39:21.162Z,100251.52
2019-02-23T12:41:52.361Z,100243.98
2019-02-23T12:44:23.403Z,100233.52
2019-02-23T12:46:54.277Z,100227.13
2019-02-23T12:49:25.206Z,100231.00
2019-02-23T12:51:56.160Z,100219.77
2019-02-23T12:54:27.038Z,100206.55
2019-02-23T12:56:57.986Z,100207.05
2019-02-23T12:59:28.937Z,100210.98
2019-02-23T13:01:59.975Z,100201.97
2019-02-23T13:04:31.079Z,100202.20
2019-02-23T13:07:02.042Z,100206.70
2019-02-23T13:09:33.589Z,100212.31
2019-02-23T13:12:19.236Z,100206.73
2019-02-23T13:14:59.084Z,100208.16
2019-02-23T13:18:01.251Z,100212.38
2019-02-23T13:20:53.128Z,100210.83
2019-02-23T13:23:33.027Z,100201.77
2019-02-23T13:26:41.316Z,100198.62
2019-02-23T13:29:20.909Z,100197.37
2019-02-23T13:32:27.648Z,100198.66
2019-02-23T13:35:18.150Z,100198.24
2019-02-23T13:37:57.889Z,100187.86
2019-02-23T13:40:40.509Z,100179.80
2019-02-23T13:43:33.801Z,100179.75
2019-02-23T13:46:39.262Z,100181.91
2019-02-23T13:49:15.923Z,100181.05
2019-02-23T13:51:58.628Z,100175.71
2019-02-23T13:54:44.313Z,100173.67
2019-02-23T13:57:26.830Z,100172.87
2019-02-23T14:00:18.626Z,100168.64
2019-02-23T14:03:10.700Z,100169.88
2019-02-23T14:05:44.619Z,100169.72
2019-02-23T14:08:30.478Z,100172.08
2019-02-23T14:11:20.749Z,100179.30
2019-02-23T14:14:00.308Z,100171.91
2019-02-23T14:16:36.788Z,100173.80
2019-02-23T14:19:22.239Z,100169.11
2019-02-23T14:21:56.167Z,100167.20
2019-02-23T14:24:49.526Z,100166.58
2019-02-23T14:27:41.041Z,100170.48
2019-02-23T14:30:23.623Z,100168.49
2019-02-23T14:33:18.032Z,100166.00
2019-02-23T14:35:57.528Z,100170.39
2019-02-23T14:38:37.581Z,100180.22
2019-02-23T14:41:14.096Z,100174.81
2019-02-23T14:43:56.677Z,100175.51
2019-02-23T14:46:45.370Z,100170.92
2019-02-23T14:49:35.411Z,100168.40
2019-02-23T14:52:30.110Z,100157.16
2019-02-23T14:55:27.671Z,100156.14
2019-02-23T14:58:01.672Z,100152.13
2019-02-23T15:00:41.555Z,100149.98
2019-02-23T15:03:44.072Z,100150.44
2019-02-23T15:06:46.381Z,100154.14
2019-02-23T15:09:41.312Z,100152.44
2019-02-23T15:12:18.057Z,100147.69
2019-02-23T15:15:06.655Z,100150.28
2019-02-23T15:18:02.675Z,100147.25
2019-02-23T15:20:57.279Z,100149.39
2019-02-23T15:23:36.749Z,100154.59
2019-02-23T15:26:13.342Z,100161.95
2019-02-23T15:28:53.083Z,100167.56
2019-02-23T15:31:30.135Z,100158.00
2019-02-23T15:34:24.628Z,100168.31
2019-02-23T15:37:00.908Z,100171.25
2019-02-23T15:39:43.026Z,100176.31
2019-02-23T15:42:19.903Z,100162.02
2019-02-23T15:45:16.430Z,100165.05
2019-02-23T15:47:53.150Z,100168.42
2019-02-23T15:50:24.040Z,100172.30
2019-02-23T15:52:55.120Z,100169.23
2019-02-23T15:55:29.473Z,100168.30
2019-02-23T15:57:58.704Z,100166.96
2019-02-23T16:00:29.755Z,100162.16
2019-02-23T16:03:00.608Z,100166.39
2019-02-23T16:05:31.563Z,100164.62
2019-02-23T16:08:02.464Z,100168.88
2019-02-23T16:10:33.448Z,100169.66
2019-02-23T16:13:04.389Z,100172.61
2019-02-23T16:15:35.397Z,100172.08
2019-02-23T16:18:06.453Z,100175.84
2019-02-23T16:20:37.410Z,100170.52
2019-02-23T16:23:08.376Z,100174.73
2019-02-23T16:25:39.338Z,100178.97
2019-02-23T16:28:10.338Z,100182.77
2019-02-23T16:30:41.292Z,100185.25
2019-02-23T16:33:12.235Z,100188.17
2019-02-23T16:35:43.204Z,100188.91
2019-02-23T16:38:14.211Z,100185.72
2019-02-23T16:40:45.138Z,100191.60
2019-02-23T16:43:20.930Z,100195.38
2019-02-23T16:45:51.846Z,100193.90
2019-02-23T16:48:22.934Z,100188.14
2019-02-23T16:50:53.917Z,100196.65
2019-02-23T16:53:24.866Z,100201.25
2019-02-23T16:55:56.810Z,100194.22
2019-02-23T16:58:27.757Z,100197.95
2019-02-23T17:00:58.701Z,100200.83
2019-02-23T17:03:29.658Z,100198.53
2019-02-23T17:06:00.574Z,100202.21
2019-02-23T17:08:33.430Z,100195.46
2019-02-23T17:11:04.318Z,100200.86
2019-02-23T17:13:35.300Z,100204.17
2019-02-23T17:16:06.145Z,100203.92
2019-02-23T17:18:37.096Z,100209.23
2019-02-23T17:21:08.111Z,100211.05
2019-02-23T17:23:39.006Z,100212.97
2019-02-23T17:26:10.029Z,100211.82
2019-02-23T17:28:41.029Z,100210.63
2019-02-23T17:31:12.046Z,100214.73
2019-02-23T17:33:42.990Z,100214.22
2019-02-23T17:36:13.924Z,100221.98
2019-02-23T17:38:45.002Z,100221.53
2019-02-23T17:41:15.903Z,100215.42
2019-02-23T17:43:46.936Z,100218.66
2019-02-23T17:46:17.792Z,100222.89
2019-02-23T17:48:49.050Z,100226.70
2019-02-23T17:51:20.008Z,100222.14
2019-02-23T17:53:50.978Z,100218.67
2019-02-23T17:56:21.943Z,100217.38
2019-02-23T17:58:52.986Z,100225.56
2019-02-23T18:01:25.465Z,100220.62
2019-02-23T18:03:56.586Z,100222.01
2019-02-23T18:06:27.630Z,100215.64
2019-02-23T18:08:58.665Z,100218.95
2019-02-23T18:11:29.555Z,100222.31
2019-02-23T18:14:00.512Z,100220.41
2019-02-23T18:16:31.501Z,100226.15
2019-02-23T18:19:02.495Z,100223.20
2019-02-23T18:21:33.529Z,100218.68
2019-02-23T18:24:04.561Z,100220.18
2019-02-23T18:26:35.605Z,100219.98
2019-02-23T18:29:07.785Z,100210.83
2019-02-23T18:31:38.850Z,100205.93
2019-02-23T18:34:09.884Z,100211.16
2019-02-23T18:36:40.789Z,100210.80
2019-02-23T18:39:11.771Z,100211.40
2019-02-23T18:41:42.754Z,100210.53
2019-02-23T18:44:13.705Z,100208.41
2019-02-23T18:46:44.671Z,100212.70
2019-02-23T18:49:15.571Z,100216.13
2019-02-23T18:51:46.695Z,100213.92
2019-02-23T18:54:17.663Z,100217.55
2019-02-23T18:56:48.682Z,100215.92
2019-02-23T18:59:19.567Z,100205.03
2019-02-23T19:01:50.533Z,100206.53
2019-02-23T19:04:21.515Z,100207.30
2019-02-23T19:06:52.410Z,100204.22
2019-02-23T19:09:23.368Z,100201.08
2019-02-23T19:11:54.279Z,100203.60
2019-02-23T19:14:25.199Z,100206.13
2019-02-23T19:16:56.138Z,100216.34
2019-02-23T19:19:27.163Z,100211.04
2019-02-23T19:21:58.117Z,100206.98
2019-02-23T19:24:29.164Z,100210.05
2019-02-23T19:27:00.096Z,100211.52
2019-02-23T19:29:31.092Z,100214.16
2019-02-23T19:32:02.036Z,100208.33
2019-02-23T19:34:33.010Z,100208.84
2019-02-23T19:37:03.967Z,100209.22
2019-02-23T19:39:34.903Z,100209.38
2019-02-23T19:42:05.906Z,100212.73
2019-02-23T19:44:36.903Z,100221.28
2019-02-23T19:47:09.104Z,100217.11
2019-02-23T19:49:40.069Z,100223.08
2019-02-23T19:52:10.965Z,100225.30
2019-02-23T19:54:41.911Z,100227.06
2019-02-23T19:57:13.143Z,100233.70
2019-02-23T19:59:44.090Z,100231.78
2019-02-23T20:02:15.065Z,100228.14
2019-02-23T20:04:46.104Z,100220.53
2019-02-23T20:07:17.097Z,100221.89
2019-02-23T20:09:48.071Z,100225.14
2019-02-23T20:12:19.020Z,100227.20
2019-02-23T20:14:50.130Z,100227.27
2019-02-23T20:17:21.120Z,100232.01
2019-02-23T20:19:52.032Z,100230.05
2019-02-23T20:22:23.015Z,100239.12
2019-02-23T20:24:53.918Z,100236.20
2019-02-23T20:27:24.931Z,100238.41
2019-02-23T20:29:55.886Z,100234.31
2019-02-23T20:32:26.742Z,100245.08
2019-02-23T20:34:57.688Z,100238.33
2019-02-23T20:37:28.605Z,100240.91
2019-02-23T20:39:59.514Z,100240.08
2019-02-23T20:42:30.385Z,100233.66
2019-02-23T20:45:01.406Z,100239.00
2019-02-23T20:47:32.520Z,100236.05
2019-02-23T20:50:04.508Z,100238.53
2019-02-23T20:52:35.485Z,100235.17
2019-02-23T20:55:08.357Z,100234.63
2019-02-23T20:57:39.377Z,100233.83
2019-02-23T21:00:11.551Z,100234.06
2019-02-23T21:02:42.455Z,100232.52
2019-02-23T21:05:14.364Z,100233.22
2019-02-23T21:07:47.714Z,100237.12
2019-02-23T21:10:18.772Z,100238.40
2019-02-23T21:12:49.664Z,100235.67
2019-02-23T21:15:20.624Z,100236.41
2019-02-23T21:17:51.571Z,100245.27
2019-02-23T21:20:22.494Z,100238.84
2019-02-23T21:22:53.549Z,100239.55
2019-02-23T21:25:24.527Z,100240.55
2019-02-23T21:27:55.489Z,100238.13
2019-02-23T21:30:26.477Z,100234.06
2019-02-23T21:32:57.541Z,100238.50
2019-02-23T21:35:28.601Z,100241.63
2019-02-23T21:37:59.488Z,100233.78
2019-02-23T21:40:30.452Z,100242.80
2019-02-23T21:43:01.417Z,100241.86
2019-02-23T21:45:32.281Z,100236.84
2019-02-23T21:48:03.225Z,100239.16
2019-02-23T21:50:34.208Z,100236.45
2019-02-23T21:53:05.270Z,100242.04
2019-02-23T21:55:36.313Z,100244.27
2019-02-23T21:58:07.282Z,100243.89
2019-02-23T22:00:38.178Z,100238.75
2019-02-23T22:03:09.202Z,100237.91
2019-02-23T22:05:40.066Z,100244.27
2019-02-23T22:08:10.964Z,100238.31
2019-02-23T22:10:41.952Z,100232.87
2019-02-23T22:13:12.940Z,100231.08
2019-02-23T22:15:43.861Z,100230.23
2019-02-23T22:18:14.877Z,100237.50
2019-02-23T22:20:45.907Z,100239.45
2019-02-23T22:23:16.957Z,100234.30
2019-02-23T22:25:47.962Z,100233.83
2019-02-23T22:28:18.930Z,100236.09
2019-02-23T22:30:49.838Z,100233.81
2019-02-23T22:33:20.732Z,100235.81
2019-02-23T22:35:51.716Z,100234.72
2019-02-23T22:38:22.730Z,100234.48
2019-02-23T22:40:56.130Z,100234.34
2019-02-23T22:43:27.015Z,100232.49
2019-02-23T22:45:58.029Z,100228.59
2019-02-23T22:48:29.038Z,100226.12
2019-02-23T22:51:00.111Z,100224.59
2019-02-23T22:53:31.124Z,100235.41
2019-02-23T22:56:02.042Z,100234.86
2019-02-23T22:58:32.959Z,100238.77
2019-02-23T23:01:04.999Z,100235.88
2019-02-23T23:03:35.971Z,100229.75
2019-02-23T23:06:07.205Z,100237.00
2019-02-23T23:08:39.937Z,100240.73
2019-02-23T23:11:10.954Z,100236.21
2019-02-23T23:13:42.041Z,100238.29
2019-02-23T23:16:13.009Z,100233.00
2019-02-23T23:18:49.718Z,100233.91
2019-02-23T23:21:20.680Z,100231.44
2019-02-23T23:23:51.639Z,100234.05
2019-02-23T23:26:22.602Z,100230.69
2019-02-23T23:28:59.392Z,100238.82
2019-02-23T23:31:30.397Z,100241.25
2019-02-23T23:34:01.575Z,100245.73
2019-02-23T23:36:32.743Z,100241.41
2019-02-23T23:39:05.485Z,100247.84
2019-02-23T23:41:36.399Z,100243.98
2019-02-23T23:44:07.408Z,100235.15
2019-02-23T23:46:38.327Z,100239.42
2019-02-23T23:49:09.221Z,100243.13
2019-02-23T23:51:40.118Z,100240.17
2019-02-23T23:54:11.075Z,100242.12
2019-02-23T23:56:42.047Z,100238.05
2019-02-23T23:59:13.094Z,100238.41
